Eagle Rock, Idaho
Current Conditions -  °F | °C
As of 5:53 AM on Thursday 27 Nov 2014 (Local Time) from KIDA Reporting Station
Clear Clear  
Wind Chill: 35°   Ceiling: Unl
Heat Index: 35°   Visibility: 10mi
Dew Point: 30°   Wind: 3mph
Humidity: 82%   Direction: 200°SSW
Pressure: 30.2"   Gusts: NA
Location:  43.5246°N, 112.143°W
Report Text: KIDA 271253Z AUTO 20003KT 10SM CLR 02/M01 A3020 RMK AO2 SLP232 T00171011
Loading
Personal Weather Stations






























Interactive Weather Map New forecast layout! Learn more

10-Day Weather Forecast

Advertisements
Track Severe Weather on mobile